sensor_id;sensor_type;location;lat;lon;timestamp;P1;durP1;ratioP1;P2;durP2;ratioP2
26622;SDS011;14254;50.968;5.366;2023-05-23T00:00:20;56.65;;;31.70;;
26622;SDS011;14254;50.968;5.366;2023-05-23T00:02:46;50.40;;;32.60;;
26622;SDS011;14254;50.968;5.366;2023-05-23T00:05:12;62.75;;;34.63;;
26622;SDS011;14254;50.968;5.366;2023-05-23T00:07:39;55.15;;;32.30;;
26622;SDS011;14254;50.968;5.366;2023-05-23T00:10:05;72.10;;;36.88;;
26622;SDS011;14254;50.968;5.366;2023-05-23T00:12:31;56.90;;;34.35;;
26622;SDS011;14254;50.968;5.366;2023-05-23T00:14:57;53.35;;;32.65;;
26622;SDS011;14254;50.968;5.366;2023-05-23T00:17:23;50.92;;;33.72;;
26622;SDS011;14254;50.968;5.366;2023-05-23T00:19:49;61.13;;;35.45;;
26622;SDS011;14254;50.968;5.366;2023-05-23T00:22:15;62.58;;;34.40;;
26622;SDS011;14254;50.968;5.366;2023-05-23T00:24:42;56.20;;;34.53;;
26622;SDS011;14254;50.968;5.366;2023-05-23T00:27:08;57.97;;;35.95;;
26622;SDS011;14254;50.968;5.366;2023-05-23T00:29:33;58.25;;;36.95;;
26622;SDS011;14254;50.968;5.366;2023-05-23T00:31:59;66.32;;;37.45;;
26622;SDS011;14254;50.968;5.366;2023-05-23T00:34:25;69.35;;;39.08;;
26622;SDS011;14254;50.968;5.366;2023-05-23T00:36:50;66.13;;;39.35;;
26622;SDS011;14254;50.968;5.366;2023-05-23T00:39:18;63.47;;;38.05;;
26622;SDS011;14254;50.968;5.366;2023-05-23T00:41:50;59.00;;;37.20;;
26622;SDS011;14254;50.968;5.366;2023-05-23T00:44:16;65.43;;;39.20;;
26622;SDS011;14254;50.968;5.366;2023-05-23T00:46:44;68.60;;;39.65;;
26622;SDS011;14254;50.968;5.366;2023-05-23T00:49:14;64.83;;;36.93;;
26622;SDS011;14254;50.968;5.366;2023-05-23T00:51:43;67.28;;;38.00;;
26622;SDS011;14254;50.968;5.366;2023-05-23T00:54:10;64.82;;;37.88;;
26622;SDS011;14254;50.968;5.366;2023-05-23T00:56:37;61.13;;;35.28;;
26622;SDS011;14254;50.968;5.366;2023-05-23T00:59:03;56.35;;;34.58;;
26622;SDS011;14254;50.968;5.366;2023-05-23T01:01:30;67.72;;;34.45;;
26622;SDS011;14254;50.968;5.366;2023-05-23T01:03:57;58.22;;;33.35;;
26622;SDS011;14254;50.968;5.366;2023-05-23T01:06:23;55.05;;;33.58;;
26622;SDS011;14254;50.968;5.366;2023-05-23T01:08:48;57.55;;;33.50;;
26622;SDS011;14254;50.968;5.366;2023-05-23T01:14:32;51.88;;;30.55;;
26622;SDS011;14254;50.968;5.366;2023-05-23T01:17:07;47.95;;;28.50;;
26622;SDS011;14254;50.968;5.366;2023-05-23T01:20:01;48.00;;;28.75;;
26622;SDS011;14254;50.968;5.366;2023-05-23T01:28:04;43.17;;;27.53;;
26622;SDS011;14254;50.968;5.366;2023-05-23T01:30:34;45.25;;;28.95;;
26622;SDS011;14254;50.968;5.366;2023-05-23T01:33:04;43.17;;;25.23;;
26622;SDS011;14254;50.968;5.366;2023-05-23T01:35:31;39.75;;;25.33;;
26622;SDS011;14254;50.968;5.366;2023-05-23T01:37:58;39.78;;;28.25;;
26622;SDS011;14254;50.968;5.366;2023-05-23T01:40:23;43.83;;;28.25;;
26622;SDS011;14254;50.968;5.366;2023-05-23T01:42:50;40.58;;;26.30;;
26622;SDS011;14254;50.968;5.366;2023-05-23T01:45:18;39.97;;;25.77;;
26622;SDS011;14254;50.968;5.366;2023-05-23T01:47:45;42.28;;;26.70;;
26622;SDS011;14254;50.968;5.366;2023-05-23T01:50:12;42.28;;;25.48;;
26622;SDS011;14254;50.968;5.366;2023-05-23T01:52:39;40.05;;;25.00;;
26622;SDS011;14254;50.968;5.366;2023-05-23T01:55:05;39.15;;;26.92;;
26622;SDS011;14254;50.968;5.366;2023-05-23T01:57:34;45.72;;;26.35;;
26622;SDS011;14254;50.968;5.366;2023-05-23T02:00:02;38.92;;;25.45;;
26622;SDS011;14254;50.968;5.366;2023-05-23T02:02:30;44.08;;;27.15;;
26622;SDS011;14254;50.968;5.366;2023-05-23T02:04:57;40.67;;;26.60;;
26622;SDS011;14254;50.968;5.366;2023-05-23T02:07:23;39.50;;;26.30;;
26622;SDS011;14254;50.968;5.366;2023-05-23T02:09:49;38.80;;;26.15;;
26622;SDS011;14254;50.968;5.366;2023-05-23T02:12:14;37.92;;;25.80;;
26622;SDS011;14254;50.968;5.366;2023-05-23T02:14:40;37.72;;;26.92;;
26622;SDS011;14254;50.968;5.366;2023-05-23T02:17:06;38.25;;;26.23;;
26622;SDS011;14254;50.968;5.366;2023-05-23T02:19:35;38.53;;;27.83;;
26622;SDS011;14254;50.968;5.366;2023-05-23T02:22:01;42.40;;;28.33;;
26622;SDS011;14254;50.968;5.366;2023-05-23T02:24:27;40.03;;;25.10;;
26622;SDS011;14254;50.968;5.366;2023-05-23T02:26:53;36.75;;;25.13;;
26622;SDS011;14254;50.968;5.366;2023-05-23T02:29:19;37.72;;;25.85;;
26622;SDS011;14254;50.968;5.366;2023-05-23T02:31:44;37.17;;;24.10;;
26622;SDS011;14254;50.968;5.366;2023-05-23T02:34:10;30.88;;;20.67;;
26622;SDS011;14254;50.968;5.366;2023-05-23T02:36:36;30.90;;;21.40;;
26622;SDS011;14254;50.968;5.366;2023-05-23T02:39:03;31.15;;;19.05;;
26622;SDS011;14254;50.968;5.366;2023-05-23T02:41:29;29.40;;;16.80;;
26622;SDS011;14254;50.968;5.366;2023-05-23T02:43:55;24.58;;;15.23;;
26622;SDS011;14254;50.968;5.366;2023-05-23T02:46:22;22.77;;;15.25;;
26622;SDS011;14254;50.968;5.366;2023-05-23T02:48:47;27.58;;;16.15;;
26622;SDS011;14254;50.968;5.366;2023-05-23T02:51:13;24.15;;;17.02;;
26622;SDS011;14254;50.968;5.366;2023-05-23T02:53:39;23.52;;;15.05;;
26622;SDS011;14254;50.968;5.366;2023-05-23T02:56:05;26.95;;;12.80;;
26622;SDS011;14254;50.968;5.366;2023-05-23T02:58:32;30.80;;;18.00;;
26622;SDS011;14254;50.968;5.366;2023-05-23T03:01:02;27.85;;;17.25;;
26622;SDS011;14254;50.968;5.366;2023-05-23T03:03:28;29.27;;;16.30;;
26622;SDS011;14254;50.968;5.366;2023-05-23T03:05:57;29.73;;;16.65;;
26622;SDS011;14254;50.968;5.366;2023-05-23T03:08:23;24.63;;;15.55;;
26622;SDS011;14254;50.968;5.366;2023-05-23T03:10:49;26.50;;;14.20;;
26622;SDS011;14254;50.968;5.366;2023-05-23T03:13:15;30.42;;;15.50;;
26622;SDS011;14254;50.968;5.366;2023-05-23T03:15:41;32.88;;;14.95;;
26622;SDS011;14254;50.968;5.366;2023-05-23T03:18:07;26.95;;;15.73;;
26622;SDS011;14254;50.968;5.366;2023-05-23T03:20:33;29.80;;;14.68;;
26622;SDS011;14254;50.968;5.366;2023-05-23T03:22:58;28.10;;;14.80;;
26622;SDS011;14254;50.968;5.366;2023-05-23T03:25:24;27.30;;;14.77;;
26622;SDS011;14254;50.968;5.366;2023-05-23T03:27:50;25.70;;;14.60;;
26622;SDS011;14254;50.968;5.366;2023-05-23T03:30:15;27.92;;;16.00;;
26622;SDS011;14254;50.968;5.366;2023-05-23T03:32:41;31.25;;;15.77;;
26622;SDS011;14254;50.968;5.366;2023-05-23T03:35:07;30.73;;;15.43;;
26622;SDS011;14254;50.968;5.366;2023-05-23T03:37:33;25.10;;;15.65;;
26622;SDS011;14254;50.968;5.366;2023-05-23T03:39:59;31.75;;;15.95;;
26622;SDS011;14254;50.968;5.366;2023-05-23T03:42:24;37.35;;;15.98;;
26622;SDS011;14254;50.968;5.366;2023-05-23T03:44:52;29.58;;;16.95;;
26622;SDS011;14254;50.968;5.366;2023-05-23T03:47:17;38.05;;;16.95;;
26622;SDS011;14254;50.968;5.366;2023-05-23T03:49:43;24.67;;;15.70;;
26622;SDS011;14254;50.968;5.366;2023-05-23T03:52:09;28.05;;;16.23;;
26622;SDS011;14254;50.968;5.366;2023-05-23T03:54:35;29.83;;;15.75;;
26622;SDS011;14254;50.968;5.366;2023-05-23T03:57:01;33.10;;;17.20;;
26622;SDS011;14254;50.968;5.366;2023-05-23T03:59:27;27.20;;;17.17;;
26622;SDS011;14254;50.968;5.366;2023-05-23T04:01:52;30.50;;;15.90;;
26622;SDS011;14254;50.968;5.366;2023-05-23T04:04:19;32.75;;;17.23;;
26622;SDS011;14254;50.968;5.366;2023-05-23T04:06:45;33.90;;;17.77;;
26622;SDS011;14254;50.968;5.366;2023-05-23T04:09:11;35.72;;;18.42;;
26622;SDS011;14254;50.968;5.366;2023-05-23T04:11:38;34.17;;;18.25;;
26622;SDS011;14254;50.968;5.366;2023-05-23T04:14:04;31.88;;;17.95;;
26622;SDS011;14254;50.968;5.366;2023-05-23T04:16:29;35.25;;;18.02;;
26622;SDS011;14254;50.968;5.366;2023-05-23T04:18:57;34.13;;;18.88;;
26622;SDS011;14254;50.968;5.366;2023-05-23T04:21:23;34.95;;;19.33;;
26622;SDS011;14254;50.968;5.366;2023-05-23T04:23:49;36.50;;;19.20;;
26622;SDS011;14254;50.968;5.366;2023-05-23T04:26:15;32.83;;;19.10;;
26622;SDS011;14254;50.968;5.366;2023-05-23T04:28:40;33.28;;;19.17;;
26622;SDS011;14254;50.968;5.366;2023-05-23T04:31:10;34.42;;;16.98;;
26622;SDS011;14254;50.968;5.366;2023-05-23T04:33:36;38.55;;;17.85;;
26622;SDS011;14254;50.968;5.366;2023-05-23T04:36:02;28.10;;;15.65;;
26622;SDS011;14254;50.968;5.366;2023-05-23T04:38:29;32.88;;;16.60;;
26622;SDS011;14254;50.968;5.366;2023-05-23T04:40:54;29.83;;;17.05;;
26622;SDS011;14254;50.968;5.366;2023-05-23T04:43:21;28.45;;;16.48;;
26622;SDS011;14254;50.968;5.366;2023-05-23T04:45:50;24.45;;;15.38;;
26622;SDS011;14254;50.968;5.366;2023-05-23T04:48:18;23.83;;;14.23;;
26622;SDS011;14254;50.968;5.366;2023-05-23T04:50:45;24.00;;;15.80;;
26622;SDS011;14254;50.968;5.366;2023-05-23T04:53:12;28.85;;;14.95;;
26622;SDS011;14254;50.968;5.366;2023-05-23T04:55:37;26.83;;;15.57;;
26622;SDS011;14254;50.968;5.366;2023-05-23T04:58:03;27.55;;;14.45;;
26622;SDS011;14254;50.968;5.366;2023-05-23T05:00:28;25.98;;;13.80;;
26622;SDS011;14254;50.968;5.366;2023-05-23T05:02:54;22.60;;;13.57;;
26622;SDS011;14254;50.968;5.366;2023-05-23T05:05:20;26.17;;;14.30;;
26622;SDS011;14254;50.968;5.366;2023-05-23T05:07:46;26.20;;;13.32;;
26622;SDS011;14254;50.968;5.366;2023-05-23T05:10:11;29.55;;;13.77;;
26622;SDS011;14254;50.968;5.366;2023-05-23T05:12:42;20.77;;;13.65;;
26622;SDS011;14254;50.968;5.366;2023-05-23T05:15:15;22.70;;;12.98;;
26622;SDS011;14254;50.968;5.366;2023-05-23T05:17:41;30.17;;;13.07;;
26622;SDS011;14254;50.968;5.366;2023-05-23T05:20:08;20.00;;;12.13;;
26622;SDS011;14254;50.968;5.366;2023-05-23T05:22:35;21.98;;;11.88;;
26622;SDS011;14254;50.968;5.366;2023-05-23T05:25:04;18.05;;;12.35;;
26622;SDS011;14254;50.968;5.366;2023-05-23T05:27:31;18.67;;;11.45;;
26622;SDS011;14254;50.968;5.366;2023-05-23T05:29:57;21.58;;;12.15;;
26622;SDS011;14254;50.968;5.366;2023-05-23T05:32:29;22.73;;;12.30;;
26622;SDS011;14254;50.968;5.366;2023-05-23T05:34:57;24.60;;;12.55;;
26622;SDS011;14254;50.968;5.366;2023-05-23T05:37:26;23.70;;;13.15;;
26622;SDS011;14254;50.968;5.366;2023-05-23T05:39:52;22.40;;;12.48;;
26622;SDS011;14254;50.968;5.366;2023-05-23T05:42:19;22.58;;;12.63;;
26622;SDS011;14254;50.968;5.366;2023-05-23T05:44:46;25.55;;;13.48;;
26622;SDS011;14254;50.968;5.366;2023-05-23T05:47:12;21.00;;;13.30;;
26622;SDS011;14254;50.968;5.366;2023-05-23T05:49:38;21.92;;;12.90;;
26622;SDS011;14254;50.968;5.366;2023-05-23T05:52:05;22.67;;;13.38;;
26622;SDS011;14254;50.968;5.366;2023-05-23T05:54:31;21.45;;;12.43;;
26622;SDS011;14254;50.968;5.366;2023-05-23T05:56:56;25.98;;;12.60;;
26622;SDS011;14254;50.968;5.366;2023-05-23T05:59:22;21.85;;;11.95;;
26622;SDS011;14254;50.968;5.366;2023-05-23T06:01:48;21.77;;;11.85;;
26622;SDS011;14254;50.968;5.366;2023-05-23T06:04:15;21.42;;;11.30;;
26622;SDS011;14254;50.968;5.366;2023-05-23T06:06:41;20.92;;;12.70;;
26622;SDS011;14254;50.968;5.366;2023-05-23T06:09:07;23.45;;;12.98;;
26622;SDS011;14254;50.968;5.366;2023-05-23T06:11:34;22.63;;;12.27;;
26622;SDS011;14254;50.968;5.366;2023-05-23T06:14:03;21.52;;;11.55;;
26622;SDS011;14254;50.968;5.366;2023-05-23T06:16:29;20.73;;;12.50;;
26622;SDS011;14254;50.968;5.366;2023-05-23T06:18:54;27.25;;;13.02;;
26622;SDS011;14254;50.968;5.366;2023-05-23T06:21:20;23.75;;;13.77;;
26622;SDS011;14254;50.968;5.366;2023-05-23T06:23:46;22.50;;;14.57;;
26622;SDS011;14254;50.968;5.366;2023-05-23T06:26:11;22.77;;;13.57;;
26622;SDS011;14254;50.968;5.366;2023-05-23T06:28:37;21.80;;;13.45;;
26622;SDS011;14254;50.968;5.366;2023-05-23T06:31:06;26.83;;;14.73;;
26622;SDS011;14254;50.968;5.366;2023-05-23T06:33:35;21.48;;;14.48;;
26622;SDS011;14254;50.968;5.366;2023-05-23T06:36:01;29.10;;;14.20;;
26622;SDS011;14254;50.968;5.366;2023-05-23T06:38:28;25.15;;;15.27;;
26622;SDS011;14254;50.968;5.366;2023-05-23T06:40:55;31.90;;;15.05;;
26622;SDS011;14254;50.968;5.366;2023-05-23T06:43:21;29.02;;;16.50;;
26622;SDS011;14254;50.968;5.366;2023-05-23T06:45:46;31.75;;;17.17;;
26622;SDS011;14254;50.968;5.366;2023-05-23T06:48:12;34.25;;;17.90;;
26622;SDS011;14254;50.968;5.366;2023-05-23T06:50:38;35.03;;;18.50;;
26622;SDS011;14254;50.968;5.366;2023-05-23T06:53:04;38.25;;;18.70;;
26622;SDS011;14254;50.968;5.366;2023-05-23T06:55:31;34.47;;;17.05;;
26622;SDS011;14254;50.968;5.366;2023-05-23T06:57:58;35.13;;;17.90;;
26622;SDS011;14254;50.968;5.366;2023-05-23T07:00:24;35.38;;;17.92;;
26622;SDS011;14254;50.968;5.366;2023-05-23T07:02:50;36.80;;;17.60;;
26622;SDS011;14254;50.968;5.366;2023-05-23T07:05:16;41.20;;;18.05;;
26622;SDS011;14254;50.968;5.366;2023-05-23T07:07:42;35.40;;;17.55;;
26622;SDS011;14254;50.968;5.366;2023-05-23T07:10:08;46.88;;;17.38;;
26622;SDS011;14254;50.968;5.366;2023-05-23T07:12:34;31.25;;;14.10;;
26622;SDS011;14254;50.968;5.366;2023-05-23T07:15:00;42.00;;;17.67;;
26622;SDS011;14254;50.968;5.366;2023-05-23T07:17:26;35.55;;;15.98;;
26622;SDS011;14254;50.968;5.366;2023-05-23T07:19:54;33.78;;;15.45;;
26622;SDS011;14254;50.968;5.366;2023-05-23T07:22:20;37.63;;;15.90;;
26622;SDS011;14254;50.968;5.366;2023-05-23T07:24:45;31.67;;;16.42;;
26622;SDS011;14254;50.968;5.366;2023-05-23T07:27:11;35.40;;;14.13;;
26622;SDS011;14254;50.968;5.366;2023-05-23T07:29:37;26.38;;;14.48;;
26622;SDS011;14254;50.968;5.366;2023-05-23T07:32:03;22.52;;;12.18;;
26622;SDS011;14254;50.968;5.366;2023-05-23T07:34:29;34.88;;;15.20;;
26622;SDS011;14254;50.968;5.366;2023-05-23T07:36:55;34.42;;;13.50;;
26622;SDS011;14254;50.968;5.366;2023-05-23T07:39:20;31.42;;;14.80;;
26622;SDS011;14254;50.968;5.366;2023-05-23T07:41:48;29.85;;;12.85;;
26622;SDS011;14254;50.968;5.366;2023-05-23T07:44:14;31.42;;;12.98;;
26622;SDS011;14254;50.968;5.366;2023-05-23T07:46:42;42.30;;;14.73;;
26622;SDS011;14254;50.968;5.366;2023-05-23T07:49:08;30.85;;;11.30;;
26622;SDS011;14254;50.968;5.366;2023-05-23T07:51:34;30.33;;;10.23;;
26622;SDS011;14254;50.968;5.366;2023-05-23T07:54:00;28.65;;;10.85;;
26622;SDS011;14254;50.968;5.366;2023-05-23T07:56:25;27.42;;;10.98;;
26622;SDS011;14254;50.968;5.366;2023-05-23T07:58:51;18.80;;;9.93;;
26622;SDS011;14254;50.968;5.366;2023-05-23T08:01:17;23.77;;;10.23;;
26622;SDS011;14254;50.968;5.366;2023-05-23T08:03:43;19.45;;;9.18;;
26622;SDS011;14254;50.968;5.366;2023-05-23T08:06:08;17.70;;;7.20;;
26622;SDS011;14254;50.968;5.366;2023-05-23T08:08:34;14.32;;;8.38;;
26622;SDS011;14254;50.968;5.366;2023-05-23T08:11:00;15.40;;;7.65;;
26622;SDS011;14254;50.968;5.366;2023-05-23T08:13:26;15.57;;;7.72;;
26622;SDS011;14254;50.968;5.366;2023-05-23T08:15:52;16.45;;;8.05;;
26622;SDS011;14254;50.968;5.366;2023-05-23T08:18:18;16.75;;;6.22;;
26622;SDS011;14254;50.968;5.366;2023-05-23T08:20:44;18.88;;;7.80;;
26622;SDS011;14254;50.968;5.366;2023-05-23T08:23:10;17.25;;;6.97;;
26622;SDS011;14254;50.968;5.366;2023-05-23T08:25:36;18.05;;;7.90;;
26622;SDS011;14254;50.968;5.366;2023-05-23T08:28:02;13.60;;;7.30;;
26622;SDS011;14254;50.968;5.366;2023-05-23T08:30:28;16.60;;;7.60;;
26622;SDS011;14254;50.968;5.366;2023-05-23T08:32:54;19.83;;;8.25;;
26622;SDS011;14254;50.968;5.366;2023-05-23T08:35:21;9.75;;;5.95;;
26622;SDS011;14254;50.968;5.366;2023-05-23T08:37:47;17.83;;;7.30;;
26622;SDS011;14254;50.968;5.366;2023-05-23T08:40:18;21.75;;;7.30;;
26622;SDS011;14254;50.968;5.366;2023-05-23T08:42:49;21.85;;;7.32;;
26622;SDS011;14254;50.968;5.366;2023-05-23T08:45:15;17.48;;;7.53;;
26622;SDS011;14254;50.968;5.366;2023-05-23T08:47:42;18.42;;;8.45;;
26622;SDS011;14254;50.968;5.366;2023-05-23T08:50:12;19.17;;;6.93;;
26622;SDS011;14254;50.968;5.366;2023-05-23T08:52:42;17.95;;;7.72;;
26622;SDS011;14254;50.968;5.366;2023-05-23T08:55:12;21.25;;;8.30;;
26622;SDS011;14254;50.968;5.366;2023-05-23T08:57:38;19.45;;;8.40;;
26622;SDS011;14254;50.968;5.366;2023-05-23T09:00:08;13.80;;;6.88;;
26622;SDS011;14254;50.968;5.366;2023-05-23T09:02:44;21.75;;;7.57;;
26622;SDS011;14254;50.968;5.366;2023-05-23T09:05:10;18.63;;;8.15;;
26622;SDS011;14254;50.968;5.366;2023-05-23T09:07:36;24.42;;;7.80;;
26622;SDS011;14254;50.968;5.366;2023-05-23T09:10:04;15.88;;;7.30;;
26622;SDS011;14254;50.968;5.366;2023-05-23T09:12:31;14.18;;;6.10;;
26622;SDS011;14254;50.968;5.366;2023-05-23T09:14:58;27.38;;;8.77;;
26622;SDS011;14254;50.968;5.366;2023-05-23T09:17:23;18.42;;;7.25;;
26622;SDS011;14254;50.968;5.366;2023-05-23T09:19:49;16.80;;;7.35;;
26622;SDS011;14254;50.968;5.366;2023-05-23T09:22:15;17.45;;;7.28;;
26622;SDS011;14254;50.968;5.366;2023-05-23T09:24:49;14.57;;;6.53;;
26622;SDS011;14254;50.968;5.366;2023-05-23T09:27:16;13.85;;;5.32;;
26622;SDS011;14254;50.968;5.366;2023-05-23T09:29:42;16.27;;;5.78;;
26622;SDS011;14254;50.968;5.366;2023-05-23T09:32:18;13.70;;;5.65;;
26622;SDS011;14254;50.968;5.366;2023-05-23T09:40:07;13.27;;;6.13;;
26622;SDS011;14254;50.968;5.366;2023-05-23T09:42:46;19.42;;;6.45;;
26622;SDS011;14254;50.968;5.366;2023-05-23T09:45:12;12.52;;;6.15;;
26622;SDS011;14254;50.968;5.366;2023-05-23T09:47:49;14.15;;;6.57;;
26622;SDS011;14254;50.968;5.366;2023-05-23T09:50:15;17.42;;;6.72;;
26622;SDS011;14254;50.968;5.366;2023-05-23T09:52:41;13.60;;;6.55;;
26622;SDS011;14254;50.968;5.366;2023-05-23T09:55:07;18.95;;;6.43;;
26622;SDS011;14254;50.968;5.366;2023-05-23T09:57:38;13.90;;;6.03;;
26622;SDS011;14254;50.968;5.366;2023-05-23T10:00:06;18.52;;;7.70;;
26622;SDS011;14254;50.968;5.366;2023-05-23T10:05:13;18.45;;;7.22;;
26622;SDS011;14254;50.968;5.366;2023-05-23T10:07:46;18.90;;;6.75;;
26622;SDS011;14254;50.968;5.366;2023-05-23T10:10:12;17.75;;;7.53;;
26622;SDS011;14254;50.968;5.366;2023-05-23T10:15:10;20.23;;;6.63;;
26622;SDS011;14254;50.968;5.366;2023-05-23T10:17:43;17.88;;;6.38;;
26622;SDS011;14254;50.968;5.366;2023-05-23T10:20:20;10.48;;;5.70;;
26622;SDS011;14254;50.968;5.366;2023-05-23T10:22:49;15.07;;;6.50;;
26622;SDS011;14254;50.968;5.366;2023-05-23T10:25:16;11.55;;;5.70;;
26622;SDS011;14254;50.968;5.366;2023-05-23T10:27:42;9.85;;;5.47;;
26622;SDS011;14254;50.968;5.366;2023-05-23T10:30:08;12.10;;;4.57;;
26622;SDS011;14254;50.968;5.366;2023-05-23T10:32:35;12.38;;;4.65;;
26622;SDS011;14254;50.968;5.366;2023-05-23T10:38:06;7.38;;;4.40;;
26622;SDS011;14254;50.968;5.366;2023-05-23T10:43:24;10.70;;;4.28;;
26622;SDS011;14254;50.968;5.366;2023-05-23T10:45:55;12.18;;;4.63;;
26622;SDS011;14254;50.968;5.366;2023-05-23T10:51:01;11.15;;;5.07;;
26622;SDS011;14254;50.968;5.366;2023-05-23T10:53:29;9.18;;;5.15;;
26622;SDS011;14254;50.968;5.366;2023-05-23T10:55:56;10.98;;;4.95;;
26622;SDS011;14254;50.968;5.366;2023-05-23T10:58:22;10.98;;;4.95;;
26622;SDS011;14254;50.968;5.366;2023-05-23T11:01:01;10.77;;;5.75;;
26622;SDS011;14254;50.968;5.366;2023-05-23T11:09:16;11.23;;;5.75;;
26622;SDS011;14254;50.968;5.366;2023-05-23T11:11:59;13.32;;;5.88;;
26622;SDS011;14254;50.968;5.366;2023-05-23T11:17:28;11.02;;;4.93;;
26622;SDS011;14254;50.968;5.366;2023-05-23T11:20:03;15.20;;;5.55;;
26622;SDS011;14254;50.968;5.366;2023-05-23T11:22:31;11.85;;;5.72;;
26622;SDS011;14254;50.968;5.366;2023-05-23T11:24:58;12.18;;;5.57;;
26622;SDS011;14254;50.968;5.366;2023-05-23T11:27:32;10.48;;;4.78;;
26622;SDS011;14254;50.968;5.366;2023-05-23T11:32:37;9.45;;;4.15;;
26622;SDS011;14254;50.968;5.366;2023-05-23T11:35:03;11.02;;;4.82;;
26622;SDS011;14254;50.968;5.366;2023-05-23T11:37:31;13.90;;;3.95;;
26622;SDS011;14254;50.968;5.366;2023-05-23T11:39:57;7.78;;;4.03;;
26622;SDS011;14254;50.968;5.366;2023-05-23T11:42:24;9.20;;;3.47;;
26622;SDS011;14254;50.968;5.366;2023-05-23T11:44:50;14.07;;;3.58;;
26622;SDS011;14254;50.968;5.366;2023-05-23T11:47:16;9.60;;;3.17;;
26622;SDS011;14254;50.968;5.366;2023-05-23T11:49:43;10.82;;;3.25;;
26622;SDS011;14254;50.968;5.366;2023-05-23T11:52:13;15.20;;;3.38;;
26622;SDS011;14254;50.968;5.366;2023-05-23T11:54:39;12.85;;;3.95;;
26622;SDS011;14254;50.968;5.366;2023-05-23T11:57:09;10.77;;;3.45;;
26622;SDS011;14254;50.968;5.366;2023-05-23T11:59:35;10.18;;;3.00;;
26622;SDS011;14254;50.968;5.366;2023-05-23T12:02:02;14.20;;;3.20;;
26622;SDS011;14254;50.968;5.366;2023-05-23T12:04:29;13.07;;;3.53;;
26622;SDS011;14254;50.968;5.366;2023-05-23T12:06:55;11.32;;;3.83;;
26622;SDS011;14254;50.968;5.366;2023-05-23T12:09:21;11.80;;;3.17;;
26622;SDS011;14254;50.968;5.366;2023-05-23T12:11:47;12.52;;;3.50;;
26622;SDS011;14254;50.968;5.366;2023-05-23T12:14:16;10.13;;;3.72;;
26622;SDS011;14254;50.968;5.366;2023-05-23T12:16:43;13.60;;;3.88;;
26622;SDS011;14254;50.968;5.366;2023-05-23T12:19:12;12.73;;;3.50;;
26622;SDS011;14254;50.968;5.366;2023-05-23T12:21:39;12.85;;;3.17;;
26622;SDS011;14254;50.968;5.366;2023-05-23T12:24:11;13.98;;;3.58;;
26622;SDS011;14254;50.968;5.366;2023-05-23T12:29:10;14.60;;;3.80;;
26622;SDS011;14254;50.968;5.366;2023-05-23T12:31:36;12.90;;;3.53;;
26622;SDS011;14254;50.968;5.366;2023-05-23T12:34:02;11.43;;;3.72;;
26622;SDS011;14254;50.968;5.366;2023-05-23T12:36:28;11.60;;;3.95;;
26622;SDS011;14254;50.968;5.366;2023-05-23T12:39:01;14.07;;;4.10;;
26622;SDS011;14254;50.968;5.366;2023-05-23T12:41:27;26.20;;;4.30;;
26622;SDS011;14254;50.968;5.366;2023-05-23T12:43:54;19.77;;;4.10;;
26622;SDS011;14254;50.968;5.366;2023-05-23T12:46:21;13.68;;;4.00;;
26622;SDS011;14254;50.968;5.366;2023-05-23T12:48:49;12.15;;;3.78;;
26622;SDS011;14254;50.968;5.366;2023-05-23T12:51:15;14.77;;;3.40;;
26622;SDS011;14254;50.968;5.366;2023-05-23T12:53:41;11.75;;;3.60;;
26622;SDS011;14254;50.968;5.366;2023-05-23T12:56:07;8.55;;;2.90;;
26622;SDS011;14254;50.968;5.366;2023-05-23T12:58:32;12.38;;;3.42;;
26622;SDS011;14254;50.968;5.366;2023-05-23T13:00:59;20.02;;;4.25;;
26622;SDS011;14254;50.968;5.366;2023-05-23T13:03:25;10.85;;;4.25;;
26622;SDS011;14254;50.968;5.366;2023-05-23T13:05:51;13.90;;;4.32;;
26622;SDS011;14254;50.968;5.366;2023-05-23T13:08:17;9.48;;;4.03;;
26622;SDS011;14254;50.968;5.366;2023-05-23T13:10:44;9.90;;;3.15;;
26622;SDS011;14254;50.968;5.366;2023-05-23T13:13:10;18.90;;;3.90;;
26622;SDS011;14254;50.968;5.366;2023-05-23T13:15:36;9.10;;;3.10;;
26622;SDS011;14254;50.968;5.366;2023-05-23T13:18:02;12.90;;;3.95;;
26622;SDS011;14254;50.968;5.366;2023-05-23T13:20:28;12.98;;;3.65;;
26622;SDS011;14254;50.968;5.366;2023-05-23T13:22:57;12.38;;;3.60;;
26622;SDS011;14254;50.968;5.366;2023-05-23T13:25:23;14.48;;;3.75;;
26622;SDS011;14254;50.968;5.366;2023-05-23T13:27:50;15.68;;;4.03;;
26622;SDS011;14254;50.968;5.366;2023-05-23T13:30:17;11.10;;;3.95;;
26622;SDS011;14254;50.968;5.366;2023-05-23T13:32:43;12.75;;;4.28;;
26622;SDS011;14254;50.968;5.366;2023-05-23T13:35:09;13.65;;;3.53;;
26622;SDS011;14254;50.968;5.366;2023-05-23T13:37:35;15.73;;;4.32;;
26622;SDS011;14254;50.968;5.366;2023-05-23T13:40:01;23.08;;;4.53;;
26622;SDS011;14254;50.968;5.366;2023-05-23T13:42:28;11.55;;;3.80;;
26622;SDS011;14254;50.968;5.366;2023-05-23T13:44:54;12.10;;;3.45;;
26622;SDS011;14254;50.968;5.366;2023-05-23T13:47:20;15.32;;;3.35;;
26622;SDS011;14254;50.968;5.366;2023-05-23T13:49:45;11.85;;;3.42;;
26622;SDS011;14254;50.968;5.366;2023-05-23T13:52:11;10.98;;;3.50;;
26622;SDS011;14254;50.968;5.366;2023-05-23T13:54:37;14.85;;;3.15;;
26622;SDS011;14254;50.968;5.366;2023-05-23T13:57:03;12.52;;;3.70;;
26622;SDS011;14254;50.968;5.366;2023-05-23T13:59:29;8.85;;;2.92;;
26622;SDS011;14254;50.968;5.366;2023-05-23T14:01:55;14.05;;;3.95;;
26622;SDS011;14254;50.968;5.366;2023-05-23T14:04:20;13.27;;;3.70;;
26622;SDS011;14254;50.968;5.366;2023-05-23T14:06:47;18.90;;;4.30;;
26622;SDS011;14254;50.968;5.366;2023-05-23T14:09:13;16.48;;;4.03;;
26622;SDS011;14254;50.968;5.366;2023-05-23T14:11:38;10.73;;;3.95;;
26622;SDS011;14254;50.968;5.366;2023-05-23T14:14:04;19.23;;;4.00;;
26622;SDS011;14254;50.968;5.366;2023-05-23T14:16:30;14.55;;;3.30;;
26622;SDS011;14254;50.968;5.366;2023-05-23T14:18:56;12.10;;;3.17;;
26622;SDS011;14254;50.968;5.366;2023-05-23T14:21:21;10.60;;;3.00;;
26622;SDS011;14254;50.968;5.366;2023-05-23T14:23:47;13.00;;;3.55;;
26622;SDS011;14254;50.968;5.366;2023-05-23T14:26:13;11.73;;;2.85;;
26622;SDS011;14254;50.968;5.366;2023-05-23T14:28:39;11.25;;;3.15;;
26622;SDS011;14254;50.968;5.366;2023-05-23T14:31:04;8.73;;;3.08;;
26622;SDS011;14254;50.968;5.366;2023-05-23T14:33:30;11.70;;;3.00;;
26622;SDS011;14254;50.968;5.366;2023-05-23T14:35:56;8.80;;;2.92;;
26622;SDS011;14254;50.968;5.366;2023-05-23T14:38:23;8.82;;;3.30;;
26622;SDS011;14254;50.968;5.366;2023-05-23T14:40:48;13.80;;;3.35;;
26622;SDS011;14254;50.968;5.366;2023-05-23T14:43:14;10.80;;;3.42;;
26622;SDS011;14254;50.968;5.366;2023-05-23T14:45:40;14.20;;;3.17;;
26622;SDS011;14254;50.968;5.366;2023-05-23T14:48:06;11.30;;;3.75;;
26622;SDS011;14254;50.968;5.366;2023-05-23T14:50:33;8.00;;;2.97;;
26622;SDS011;14254;50.968;5.366;2023-05-23T14:52:59;13.15;;;3.13;;
26622;SDS011;14254;50.968;5.366;2023-05-23T14:55:24;9.25;;;2.67;;
26622;SDS011;14254;50.968;5.366;2023-05-23T14:57:50;10.73;;;3.13;;
26622;SDS011;14254;50.968;5.366;2023-05-23T15:00:16;10.27;;;2.80;;
26622;SDS011;14254;50.968;5.366;2023-05-23T15:02:42;11.55;;;3.13;;
26622;SDS011;14254;50.968;5.366;2023-05-23T15:05:08;17.40;;;3.38;;
26622;SDS011;14254;50.968;5.366;2023-05-23T15:07:34;13.18;;;3.05;;